Time;durP1;ratioP1;P1;durP2;ratioP2;P2;SDS_P1;SDS_P2;PMS_P1;PMS_P2;Temp;Humidity;BMP_temperature;BMP_pressure;BME280_temperature;BME280_humidity;BME280_pressure;Samples;Min_cycle;Max_cycle;Signal;HPM_P1;HPM_P2
2023/12/29 00:02:20;;;;;;;;;;;5.60;86.40;;;;;;4997302;28;87761;-48
2023/12/29 00:04:45;;;;;;;;;;;5.60;86.50;;;;;;4996592;28;87686;-47
2023/12/29 00:07:11;;;;;;;;;;;5.60;86.60;;;;;;4997851;28;87073;-48
2023/12/29 00:09:40;;;;;;;;;;;5.60;86.60;;;;;;4998716;28;87033;-48
2023/12/29 00:12:06;;;;;;;;;;;5.60;86.50;;;;;;4994160;28;88562;-47
2023/12/29 00:14:32;;;;;;;;;;;5.60;86.70;;;;;;4998048;28;87473;-48
2023/12/29 00:16:58;;;;;;;;;;;5.60;86.70;;;;;;5002884;28;86336;-48
2023/12/29 00:19:23;;;;;;;;;;;5.60;86.60;;;;;;4998590;28;87091;-48
2023/12/29 00:21:49;;;;;;;;;;;5.60;86.60;;;;;;4996409;28;87040;-47
2023/12/29 00:24:14;;;;;;;;;;;5.50;86.60;;;;;;4996879;28;89464;-47
2023/12/29 00:26:40;;;;;;;;;;;5.50;86.60;;;;;;4996380;28;87144;-48
2023/12/29 00:29:06;;;;;;;;;;;5.50;86.70;;;;;;4997074;28;87857;-48
2023/12/29 00:31:32;;;;;;;;;;;5.50;86.70;;;;;;4996111;28;87528;-47
2023/12/29 00:33:57;;;;;;;;;;;5.50;86.60;;;;;;4995376;28;86957;-47
2023/12/29 00:36:24;;;;;;;;;;;5.50;86.60;;;;;;4996065;28;87839;-48
2023/12/29 00:38:49;;;;;;;;;;;5.50;86.70;;;;;;5000584;28;88546;-48
2023/12/29 00:41:15;;;;;;;;;;;5.50;86.60;;;;;;5000047;28;87018;-48
2023/12/29 00:43:40;;;;;;;;;;;5.50;86.70;;;;;;4994730;28;87496;-51
2023/12/29 00:46:06;;;;;;;;;;;5.50;86.70;;;;;;5000592;28;86730;-50
2023/12/29 00:48:32;;;;;;;;;;;5.50;86.70;;;;;;4994598;28;87912;-48
2023/12/29 00:50:57;;;;;;;;;;;5.50;86.70;;;;;;5000635;28;87380;-47
2023/12/29 00:53:23;;;;;;;;;;;5.50;86.70;;;;;;4997632;28;87102;-47
2023/12/29 00:55:49;;;;;;;;;;;5.50;86.80;;;;;;4998631;28;88039;-47
2023/12/29 00:58:14;;;;;;;;;;;5.40;86.60;;;;;;4997844;28;88374;-48
2023/12/29 01:00:40;;;;;;;;;;;5.50;86.70;;;;;;5002938;28;86900;-47
2023/12/29 01:03:05;;;;;;;;;;;5.50;86.80;;;;;;4996291;28;87343;-47
2023/12/29 01:05:31;;;;;;;;;;;5.40;86.70;;;;;;4996278;28;86426;-48
2023/12/29 01:07:57;;;;;;;;;;;5.40;86.70;;;;;;5000757;28;86976;-48
2023/12/29 01:10:22;;;;;;;;;;;5.40;86.60;;;;;;4994946;28;87385;-47
2023/12/29 01:12:48;;;;;;;;;;;5.40;86.70;;;;;;4998066;28;88033;-47
2023/12/29 01:15:14;;;;;;;;;;;5.40;86.70;;;;;;5001161;28;87425;-47
2023/12/29 01:17:40;;;;;;;;;;;5.40;86.70;;;;;;4994043;28;88587;-48
2023/12/29 01:20:06;;;;;;;;;;;5.40;86.60;;;;;;5000843;28;87023;-49
2023/12/29 01:22:31;;;;;;;;;;;5.40;86.70;;;;;;4994495;28;87402;-48
2023/12/29 01:25:00;;;;;;;;;;;5.40;86.60;;;;;;4999488;28;87133;-46
2023/12/29 01:27:26;;;;;;;;;;;5.40;86.60;;;;;;5001604;28;86993;-48
2023/12/29 01:29:52;;;;;;;;;;;5.40;86.70;;;;;;4999896;28;86496;-47
2023/12/29 01:32:21;;;;;;;;;;;5.40;86.70;;;;;;4999811;28;88472;-48
2023/12/29 01:34:47;;;;;;;;;;;5.40;86.70;;;;;;5001089;28;86871;-47
2023/12/29 01:37:12;;;;;;;;;;;5.40;86.80;;;;;;4996623;28;88308;-47
2023/12/29 01:39:39;;;;;;;;;;;5.40;86.70;;;;;;5001535;28;87220;-48
2023/12/29 01:42:05;;;;;;;;;;;5.40;86.70;;;;;;5003263;28;87991;-47
2023/12/29 01:44:31;;;;;;;;;;;5.40;86.60;;;;;;4997142;28;86987;-47
2023/12/29 01:46:59;;;;;;;;;;;5.40;86.60;;;;;;4997277;28;87030;-47
2023/12/29 01:49:24;;;;;;;;;;;5.30;86.60;;;;;;5002429;28;87014;-47
2023/12/29 01:51:52;;;;;;;;;;;5.30;86.60;;;;;;4998684;28;89351;-47
2023/12/29 01:54:18;;;;;;;;;;;5.30;86.70;;;;;;5002325;28;87894;-47
2023/12/29 01:56:44;;;;;;;;;;;5.30;87.20;;;;;;4998802;28;87189;-47
2023/12/29 01:59:10;;;;;;;;;;;5.30;86.70;;;;;;4999803;28;86848;-48
2023/12/29 02:01:37;;;;;;;;;;;5.30;86.60;;;;;;4998916;28;88625;-49
2023/12/29 02:04:03;;;;;;;;;;;5.30;86.80;;;;;;4999034;28;87435;-48
2023/12/29 02:06:28;;;;;;;;;;;5.30;86.60;;;;;;4999817;28;86935;-47
2023/12/29 02:08:54;;;;;;;;;;;5.30;86.60;;;;;;4997088;28;87050;-48
2023/12/29 02:11:20;;;;;;;;;;;5.20;86.60;;;;;;5000873;28;87002;-48
2023/12/29 02:13:45;;;;;;;;;;;5.20;86.70;;;;;;4997822;28;86881;-48
2023/12/29 02:16:21;;;;;;;;;;;5.30;86.60;;;;;;5001857;28;87413;-47
2023/12/29 02:18:49;;;;;;;;;;;5.20;86.40;;;;;;4996853;28;86129;-47
2023/12/29 02:21:14;;;;;;;;;;;5.20;86.40;;;;;;5000089;28;87479;-47
2023/12/29 02:23:40;;;;;;;;;;;5.20;86.60;;;;;;4997373;28;87613;-48
2023/12/29 02:26:09;;;;;;;;;;;5.20;86.50;;;;;;5002997;28;87908;-46
2023/12/29 02:28:38;;;;;;;;;;;5.20;86.50;;;;;;4993439;28;87787;-46
2023/12/29 02:31:14;;;;;;;;;;;5.20;86.30;;;;;;5002004;28;87007;-46
2023/12/29 02:33:40;;;;;;;;;;;5.20;86.30;;;;;;5003197;28;86970;-47
2023/12/29 02:36:06;;;;;;;;;;;5.20;86.40;;;;;;4996190;28;87487;-48
2023/12/29 02:38:32;;;;;;;;;;;5.20;86.40;;;;;;4997153;28;86890;-47
2023/12/29 02:40:58;;;;;;;;;;;5.20;86.30;;;;;;4996742;28;86942;-46
2023/12/29 02:43:24;;;;;;;;;;;5.20;86.40;;;;;;5000663;28;86701;-46
2023/12/29 02:45:50;;;;;;;;;;;5.20;86.50;;;;;;5003368;28;88402;-46
2023/12/29 02:48:15;;;;;;;;;;;5.10;86.30;;;;;;5000791;28;87816;-47
2023/12/29 02:50:41;;;;;;;;;;;5.20;86.20;;;;;;4998171;28;88125;-48
2023/12/29 02:53:06;;;;;;;;;;;5.20;86.20;;;;;;4997963;28;87691;-46
2023/12/29 02:55:32;;;;;;;;;;;5.20;86.20;;;;;;4998444;28;87142;-46
2023/12/29 02:57:58;;;;;;;;;;;5.10;86.20;;;;;;4998483;28;87003;-48
2023/12/29 03:00:23;;;;;;;;;;;5.10;86.20;;;;;;4999935;28;87777;-47
2023/12/29 03:02:49;;;;;;;;;;;5.10;86.20;;;;;;5001096;28;87479;-48
2023/12/29 03:05:15;;;;;;;;;;;5.10;86.20;;;;;;4996251;28;86995;-47
2023/12/29 03:07:40;;;;;;;;;;;5.10;86.00;;;;;;4999008;28;87824;-46
2023/12/29 03:10:06;;;;;;;;;;;5.10;86.00;;;;;;5000148;28;87002;-48
2023/12/29 03:12:32;;;;;;;;;;;5.20;86.00;;;;;;5001255;28;86954;-47
2023/12/29 03:14:58;;;;;;;;;;;5.10;86.00;;;;;;4997212;28;89372;-46
2023/12/29 03:17:23;;;;;;;;;;;5.10;86.20;;;;;;4996057;28;87112;-47
2023/12/29 03:19:49;;;;;;;;;;;5.10;86.10;;;;;;4999744;28;87067;-47
2023/12/29 03:22:14;;;;;;;;;;;5.10;85.90;;;;;;4998616;28;87424;-46
2023/12/29 03:24:41;;;;;;;;;;;5.10;86.00;;;;;;4997034;28;87058;-47
2023/12/29 03:27:06;;;;;;;;;;;5.10;86.60;;;;;;4998504;28;86921;-46
2023/12/29 03:29:32;;;;;;;;;;;5.00;85.90;;;;;;5000233;28;86913;-46
2023/12/29 03:31:57;;;;;;;;;;;5.00;86.00;;;;;;4999738;28;87674;-48
2023/12/29 03:34:23;;;;;;;;;;;5.00;86.00;;;;;;4999796;28;87258;-46
2023/12/29 03:36:48;;;;;;;;;;;5.00;86.00;;;;;;4997281;28;87016;-46
2023/12/29 03:39:14;;;;;;;;;;;5.00;86.00;;;;;;4994374;28;87840;-48
2023/12/29 03:41:40;;;;;;;;;;;5.10;85.90;;;;;;4996135;28;87230;-48
2023/12/29 03:44:06;;;;;;;;;;;5.00;85.80;;;;;;4999252;28;87080;-46
2023/12/29 03:46:32;;;;;;;;;;;5.00;85.90;;;;;;4995765;28;86887;-48
2023/12/29 03:48:58;;;;;;;;;;;5.00;85.90;;;;;;4996609;28;88597;-48
2023/12/29 03:51:23;;;;;;;;;;;5.00;86.00;;;;;;5001932;28;87037;-47
2023/12/29 03:53:49;;;;;;;;;;;4.90;86.00;;;;;;4995891;28;87232;-46
2023/12/29 03:56:18;;;;;;;;;;;4.90;86.00;;;;;;4998359;28;86453;-46
2023/12/29 03:58:46;;;;;;;;;;;4.90;85.80;;;;;;4993566;28;86683;-47
2023/12/29 04:01:13;;;;;;;;;;;5.00;85.90;;;;;;4996472;28;87389;-48
2023/12/29 04:03:39;;;;;;;;;;;5.00;85.90;;;;;;4996959;28;87935;-47
2023/12/29 04:06:06;;;;;;;;;;;4.90;85.90;;;;;;4998648;28;87975;-48
2023/12/29 04:08:31;;;;;;;;;;;4.90;85.80;;;;;;4998932;28;87314;-46
2023/12/29 04:10:57;;;;;;;;;;;4.90;86.00;;;;;;4995397;28;87121;-47
2023/12/29 04:13:22;;;;;;;;;;;4.90;85.90;;;;;;5000736;28;87966;-46
2023/12/29 04:15:48;;;;;;;;;;;4.90;85.90;;;;;;5001870;28;87024;-47
2023/12/29 04:18:14;;;;;;;;;;;4.90;85.90;;;;;;4997292;28;89004;-46
2023/12/29 04:20:39;;;;;;;;;;;4.90;85.80;;;;;;4998184;28;86755;-47
2023/12/29 04:23:06;;;;;;;;;;;4.90;85.70;;;;;;5003790;28;87947;-47
2023/12/29 04:25:31;;;;;;;;;;;4.90;85.60;;;;;;4997434;28;86855;-47
2023/12/29 04:27:57;;;;;;;;;;;4.90;85.70;;;;;;4996116;28;88409;-46
2023/12/29 04:30:22;;;;;;;;;;;4.90;85.80;;;;;;4992431;28;87027;-47
2023/12/29 04:32:48;;;;;;;;;;;4.90;85.70;;;;;;4997330;28;86972;-47
2023/12/29 04:35:14;;;;;;;;;;;4.90;85.70;;;;;;5000677;28;87573;-48
2023/12/29 04:37:41;;;;;;;;;;;4.80;85.80;;;;;;4998360;28;87881;-46
2023/12/29 04:40:07;;;;;;;;;;;4.80;85.70;;;;;;5000791;28;88582;-48
2023/12/29 04:42:32;;;;;;;;;;;4.80;85.70;;;;;;4998343;28;87035;-49
2023/12/29 04:44:58;;;;;;;;;;;4.80;85.60;;;;;;4999341;28;86289;-47
2023/12/29 04:47:24;;;;;;;;;;;4.80;85.70;;;;;;4995205;28;87279;-47
2023/12/29 04:49:49;;;;;;;;;;;4.80;85.50;;;;;;5000604;28;87464;-47
2023/12/29 04:52:15;;;;;;;;;;;4.80;85.50;;;;;;4997737;28;89689;-46
2023/12/29 04:54:40;;;;;;;;;;;4.80;85.60;;;;;;4995979;28;87707;-47
2023/12/29 04:57:06;;;;;;;;;;;4.80;85.70;;;;;;4999821;28;86991;-46
2023/12/29 04:59:31;;;;;;;;;;;4.80;85.70;;;;;;4996166;28;87411;-47
2023/12/29 05:01:57;;;;;;;;;;;4.70;85.70;;;;;;4999140;28;87125;-48
2023/12/29 05:04:22;;;;;;;;;;;4.80;85.70;;;;;;4994309;28;87236;-48
2023/12/29 05:06:48;;;;;;;;;;;4.80;85.80;;;;;;4998262;28;88292;-47
2023/12/29 05:09:13;;;;;;;;;;;4.70;85.70;;;;;;4995811;28;86266;-47
2023/12/29 05:11:40;;;;;;;;;;;4.80;85.70;;;;;;4998238;28;86886;-49
2023/12/29 05:14:05;;;;;;;;;;;4.70;85.60;;;;;;4997725;28;87688;-48
2023/12/29 05:16:31;;;;;;;;;;;4.70;85.60;;;;;;5003161;28;88767;-48
2023/12/29 05:18:56;;;;;;;;;;;4.70;85.60;;;;;;4998225;28;87113;-50
2023/12/29 05:21:24;;;;;;;;;;;4.70;85.50;;;;;;4994973;28;86979;-50
2023/12/29 05:23:49;;;;;;;;;;;4.70;85.50;;;;;;4998397;28;87001;-48
2023/12/29 05:26:15;;;;;;;;;;;4.70;85.60;;;;;;4998908;28;87494;-49
2023/12/29 05:28:40;;;;;;;;;;;4.70;85.50;;;;;;4999277;28;87006;-51
2023/12/29 05:31:06;;;;;;;;;;;4.60;85.60;;;;;;4996577;28;86811;-47
2023/12/29 05:33:32;;;;;;;;;;;4.70;85.60;;;;;;4996115;28;87915;-47
2023/12/29 05:35:58;;;;;;;;;;;4.60;85.50;;;;;;4995295;28;87190;-47
2023/12/29 05:38:24;;;;;;;;;;;4.70;85.60;;;;;;4999790;28;87399;-46
2023/12/29 05:40:50;;;;;;;;;;;4.60;85.50;;;;;;4994497;28;87989;-47
2023/12/29 05:43:15;;;;;;;;;;;4.60;85.50;;;;;;4997899;28;87737;-47
2023/12/29 05:45:41;;;;;;;;;;;4.60;85.50;;;;;;4998024;28;87557;-48
2023/12/29 05:48:06;;;;;;;;;;;4.60;85.30;;;;;;4993909;28;87050;-49
2023/12/29 05:50:32;;;;;;;;;;;4.60;85.30;;;;;;4996351;28;86895;-48
2023/12/29 05:52:58;;;;;;;;;;;4.60;85.50;;;;;;4992699;28;87000;-46
2023/12/29 05:55:23;;;;;;;;;;;4.60;85.40;;;;;;4995758;28;87123;-46
2023/12/29 05:57:49;;;;;;;;;;;4.60;85.40;;;;;;4997593;28;86787;-46
2023/12/29 06:00:14;;;;;;;;;;;4.60;85.50;;;;;;5006179;28;87510;-47
2023/12/29 06:02:43;;;;;;;;;;;4.60;85.60;;;;;;4993865;28;88219;-46
2023/12/29 06:05:12;;;;;;;;;;;4.60;85.50;;;;;;4991363;28;88978;-46
2023/12/29 06:07:38;;;;;;;;;;;4.60;85.50;;;;;;4993761;28;87049;-47
2023/12/29 06:10:04;;;;;;;;;;;4.60;85.40;;;;;;4999810;28;87931;-46
2023/12/29 06:12:29;;;;;;;;;;;4.50;85.30;;;;;;4999603;28;89026;-47
2023/12/29 06:14:55;;;;;;;;;;;4.50;85.40;;;;;;5000467;28;87227;-47
2023/12/29 06:17:20;;;;;;;;;;;4.50;85.50;;;;;;5007863;28;86930;-47
2023/12/29 06:19:46;;;;;;;;;;;4.50;85.40;;;;;;4994605;28;88958;-47
2023/12/29 06:22:11;;;;;;;;;;;4.50;85.30;;;;;;4997745;28;86744;-48
2023/12/29 06:24:37;;;;;;;;;;;4.50;85.30;;;;;;4998914;28;89196;-47
2023/12/29 06:27:03;;;;;;;;;;;4.50;85.30;;;;;;5002484;28;87048;-47
2023/12/29 06:29:29;;;;;;;;;;;4.50;85.30;;;;;;5001669;28;88141;-47
2023/12/29 06:31:54;;;;;;;;;;;4.50;85.40;;;;;;5001275;28;88465;-48
2023/12/29 06:34:20;;;;;;;;;;;4.50;85.20;;;;;;5000623;28;87034;-47
2023/12/29 06:36:45;;;;;;;;;;;4.50;85.10;;;;;;4998410;28;87008;-47
2023/12/29 06:39:11;;;;;;;;;;;4.50;85.20;;;;;;4999870;28;87525;-47
2023/12/29 06:41:37;;;;;;;;;;;4.50;85.10;;;;;;4997246;28;87180;-46
2023/12/29 06:44:02;;;;;;;;;;;4.50;85.20;;;;;;4999698;28;86908;-46
2023/12/29 06:46:28;;;;;;;;;;;4.50;85.10;;;;;;5002585;28;86325;-47
2023/12/29 06:48:53;;;;;;;;;;;4.40;85.10;;;;;;5000616;28;87025;-47
2023/12/29 06:51:19;;;;;;;;;;;4.40;85.10;;;;;;5002383;28;87440;-47
2023/12/29 06:53:46;;;;;;;;;;;4.40;85.10;;;;;;4996671;28;87966;-48
2023/12/29 06:56:13;;;;;;;;;;;4.40;85.30;;;;;;5004055;28;88150;-47
2023/12/29 06:58:39;;;;;;;;;;;4.40;85.30;;;;;;4996706;28;88426;-46
2023/12/29 07:01:04;;;;;;;;;;;4.40;85.20;;;;;;4996414;28;87042;-46
2023/12/29 07:03:30;;;;;;;;;;;4.40;85.30;;;;;;5000533;28;88196;-48
2023/12/29 07:05:55;;;;;;;;;;;4.40;85.20;;;;;;4999925;28;88816;-46
2023/12/29 07:08:21;;;;;;;;;;;4.40;85.20;;;;;;5000411;28;87661;-48
2023/12/29 07:10:49;;;;;;;;;;;4.40;85.80;;;;;;4999799;28;86544;-48
2023/12/29 07:13:15;;;;;;;;;;;4.40;85.20;;;;;;5002660;28;87345;-47
2023/12/29 07:15:41;;;;;;;;;;;4.40;85.30;;;;;;4998795;28;87062;-46
2023/12/29 07:18:06;;;;;;;;;;;4.30;85.30;;;;;;4999070;28;89278;-47
2023/12/29 07:20:32;;;;;;;;;;;4.30;85.40;;;;;;4995678;28;86971;-46
2023/12/29 07:22:58;;;;;;;;;;;4.30;85.40;;;;;;4998938;28;87979;-46
2023/12/29 07:25:23;;;;;;;;;;;4.30;85.20;;;;;;5001584;28;87304;-46
2023/12/29 07:27:49;;;;;;;;;;;4.30;85.20;;;;;;4993845;28;86975;-47
2023/12/29 07:30:15;;;;;;;;;;;4.30;85.20;;;;;;4995365;28;87236;-46
2023/12/29 07:32:40;;;;;;;;;;;4.30;85.20;;;;;;4999248;28;87021;-47
2023/12/29 07:35:06;;;;;;;;;;;4.30;85.10;;;;;;4996963;28;87299;-47
2023/12/29 07:37:32;;;;;;;;;;;4.30;85.00;;;;;;4999922;28;87365;-48
2023/12/29 07:39:57;;;;;;;;;;;4.30;85.20;;;;;;4998822;28;87026;-47
2023/12/29 07:42:23;;;;;;;;;;;4.30;85.20;;;;;;5002243;28;89520;-47
2023/12/29 07:44:48;;;;;;;;;;;4.30;85.30;;;;;;4994200;28;87430;-46
2023/12/29 07:47:14;;;;;;;;;;;4.20;85.40;;;;;;5002375;28;87247;-48
2023/12/29 07:49:41;;;;;;;;;;;4.30;85.30;;;;;;5000859;28;87268;-48
2023/12/29 07:52:06;;;;;;;;;;;4.20;85.20;;;;;;4999695;28;87201;-48
2023/12/29 07:54:32;;;;;;;;;;;4.30;85.20;;;;;;4993864;28;87741;-46
2023/12/29 07:56:57;;;;;;;;;;;4.30;85.20;;;;;;4997089;28;87278;-47
2023/12/29 07:59:23;;;;;;;;;;;4.20;85.30;;;;;;5000906;28;86375;-48
2023/12/29 08:01:48;;;;;;;;;;;4.20;85.30;;;;;;4994514;28;87021;-46
2023/12/29 08:04:14;;;;;;;;;;;4.20;85.30;;;;;;4994460;28;87505;-47
2023/12/29 08:06:40;;;;;;;;;;;4.30;85.30;;;;;;5003093;28;88034;-47
2023/12/29 08:09:07;;;;;;;;;;;4.20;85.30;;;;;;4998585;28;87801;-47
2023/12/29 08:11:32;;;;;;;;;;;4.30;85.20;;;;;;4993212;28;87434;-48
2023/12/29 08:13:58;;;;;;;;;;;4.30;85.20;;;;;;4995085;28;87064;-47
2023/12/29 08:16:24;;;;;;;;;;;4.20;85.30;;;;;;5004531;28;89952;-47
2023/12/29 08:18:49;;;;;;;;;;;4.20;85.30;;;;;;4996218;28;87147;-47
2023/12/29 08:21:19;;;;;;;;;;;4.20;85.40;;;;;;4995838;28;87561;-47
2023/12/29 08:23:47;;;;;;;;;;;4.20;85.50;;;;;;4995297;28;87127;-48
2023/12/29 08:26:13;;;;;;;;;;;4.20;85.40;;;;;;4995327;28;88505;-47
2023/12/29 08:28:39;;;;;;;;;;;4.20;85.40;;;;;;4997346;28;86960;-46
2023/12/29 08:31:05;;;;;;;;;;;4.20;85.40;;;;;;4998206;28;89553;-47
2023/12/29 08:33:31;;;;;;;;;;;4.20;85.30;;;;;;5001037;28;88690;-47
2023/12/29 08:36:00;;;;;;;;;;;4.20;85.30;;;;;;4999227;28;87527;-47
2023/12/29 08:38:26;;;;;;;;;;;4.20;85.40;;;;;;4995196;28;87097;-46
2023/12/29 08:40:52;;;;;;;;;;;4.20;85.40;;;;;;5001417;28;87074;-46
2023/12/29 08:43:21;;;;;;;;;;;4.20;85.40;;;;;;5000751;28;86786;-46
2023/12/29 08:45:49;;;;;;;;;;;4.20;85.30;;;;;;4998055;28;88290;-46
2023/12/29 08:48:15;;;;;;;;;;;4.20;85.10;;;;;;4997669;28;88122;-47
2023/12/29 08:50:42;;;;;;;;;;;4.20;85.10;;;;;;4997644;28;87893;-48
2023/12/29 08:53:08;;;;;;;;;;;4.20;85.10;;;;;;4999988;28;86977;-48
2023/12/29 08:55:33;;;;;;;;;;;4.20;85.10;;;;;;4999777;28;88756;-47
2023/12/29 08:57:59;;;;;;;;;;;4.20;85.10;;;;;;4992929;28;87172;-48
2023/12/29 09:00:24;;;;;;;;;;;4.20;85.10;;;;;;4995486;28;86979;-47
2023/12/29 09:02:50;;;;;;;;;;;4.20;85.10;;;;;;4998810;28;87362;-46
2023/12/29 09:05:15;;;;;;;;;;;4.20;85.10;;;;;;4995059;28;87017;-47
2023/12/29 09:07:41;;;;;;;;;;;4.20;85.00;;;;;;4994426;28;86896;-46
2023/12/29 09:10:08;;;;;;;;;;;4.20;85.00;;;;;;4998363;28;87547;-47
2023/12/29 09:12:37;;;;;;;;;;;4.20;85.20;;;;;;5003117;28;87996;-47
2023/12/29 09:15:03;;;;;;;;;;;4.20;85.20;;;;;;4994635;28;87182;-47
2023/12/29 09:17:29;;;;;;;;;;;4.20;85.10;;;;;;4997144;28;87308;-47
2023/12/29 09:19:54;;;;;;;;;;;4.20;85.80;;;;;;4993209;28;87955;-48
2023/12/29 09:22:20;;;;;;;;;;;4.20;85.20;;;;;;4999718;28;88487;-47
2023/12/29 09:24:46;;;;;;;;;;;4.20;85.50;;;;;;5000749;28;86954;-46
2023/12/29 09:27:12;;;;;;;;;;;4.20;85.50;;;;;;4995426;28;86883;-47
2023/12/29 09:29:37;;;;;;;;;;;4.20;85.40;;;;;;4997014;28;87418;-48
2023/12/29 09:32:03;;;;;;;;;;;4.20;85.20;;;;;;5000614;28;87450;-47
2023/12/29 09:34:28;;;;;;;;;;;4.10;85.50;;;;;;4996797;28;87491;-47
2023/12/29 09:36:54;;;;;;;;;;;4.20;85.40;;;;;;4994960;28;87997;-48
2023/12/29 09:39:20;;;;;;;;;;;4.20;85.40;;;;;;4998558;28;86867;-47
2023/12/29 09:41:51;;;;;;;;;;;4.20;85.40;;;;;;4997721;28;88502;-47
2023/12/29 09:44:19;;;;;;;;;;;4.20;85.50;;;;;;4995522;28;88012;-47
2023/12/29 09:46:47;;;;;;;;;;;4.10;85.50;;;;;;4996306;28;87681;-48
2023/12/29 09:49:14;;;;;;;;;;;4.10;85.50;;;;;;5006847;28;87425;-49
2023/12/29 09:51:40;;;;;;;;;;;4.10;85.50;;;;;;5000339;28;87076;-46
2023/12/29 09:54:06;;;;;;;;;;;4.10;85.70;;;;;;5005161;28;86858;-47
2023/12/29 09:56:32;;;;;;;;;;;4.10;85.60;;;;;;5005547;28;87365;-46
2023/12/29 09:58:57;;;;;;;;;;;4.10;85.80;;;;;;4998294;28;87651;-46
2023/12/29 10:01:24;;;;;;;;;;;4.10;85.70;;;;;;5002792;28;87597;-49
2023/12/29 10:03:49;;;;;;;;;;;4.10;85.80;;;;;;4998690;28;86985;-46
2023/12/29 10:06:19;;;;;;;;;;;4.10;85.70;;;;;;4999529;28;86957;-47
2023/12/29 10:08:45;;;;;;;;;;;4.10;85.70;;;;;;4996019;28;88516;-49
2023/12/29 10:11:11;;;;;;;;;;;4.10;85.80;;;;;;5000889;28;87066;-46
2023/12/29 10:13:38;;;;;;;;;;;4.10;85.80;;;;;;5000225;28;86879;-48
2023/12/29 10:16:06;;;;;;;;;;;4.10;85.90;;;;;;4993975;28;86838;-47
2023/12/29 10:18:36;;;;;;;;;;;4.10;85.90;;;;;;4999515;28;87031;-48
2023/12/29 10:21:03;;;;;;;;;;;4.10;85.90;;;;;;4999276;28;88532;-47
2023/12/29 10:23:33;;;;;;;;;;;4.10;85.90;;;;;;4998934;28;87038;-46
2023/12/29 10:25:58;;;;;;;;;;;4.10;85.90;;;;;;4999846;28;87838;-46
2023/12/29 10:28:24;;;;;;;;;;;4.10;85.80;;;;;;4994187;28;87453;-47
2023/12/29 10:30:49;;;;;;;;;;;4.10;85.90;;;;;;5000002;28;87008;-46
2023/12/29 10:33:21;;;;;;;;;;;4.10;86.10;;;;;;4999250;28;87906;-48
2023/12/29 10:36:03;;;;;;;;;;;4.10;86.60;;;;;;5000157;28;87512;-48
2023/12/29 10:38:29;;;;;;;;;;;4.10;86.20;;;;;;5001348;28;86970;-47
2023/12/29 10:41:09;;;;;;;;;;;4.10;86.40;;;;;;5003262;28;87870;-47
2023/12/29 10:43:35;;;;;;;;;;;4.10;86.10;;;;;;4998332;28;87007;-47
2023/12/29 10:46:08;;;;;;;;;;;4.10;86.30;;;;;;4998814;28;86927;-46
2023/12/29 10:48:34;;;;;;;;;;;4.10;86.20;;;;;;4998973;28;88577;-48
2023/12/29 10:51:01;;;;;;;;;;;4.10;86.40;;;;;;5002579;28;86745;-49
2023/12/29 10:53:28;;;;;;;;;;;4.10;86.40;;;;;;5000116;28;87213;-46
2023/12/29 10:55:54;;;;;;;;;;;4.00;86.40;;;;;;4993617;28;88875;-48
2023/12/29 10:58:20;;;;;;;;;;;4.10;86.70;;;;;;4998192;28;88050;-47
2023/12/29 11:00:46;;;;;;;;;;;4.10;86.70;;;;;;4993928;28;88762;-47
2023/12/29 11:03:16;;;;;;;;;;;4.10;86.50;;;;;;5001238;28;88608;-50
2023/12/29 11:05:42;;;;;;;;;;;4.10;86.60;;;;;;5000817;28;86991;-47
2023/12/29 11:08:17;;;;;;;;;;;4.10;86.50;;;;;;4995674;28;88531;-47
2023/12/29 11:10:44;;;;;;;;;;;4.10;86.50;;;;;;4996292;28;86973;-48
2023/12/29 11:13:10;;;;;;;;;;;4.10;86.60;;;;;;4999571;28;87904;-48
2023/12/29 11:15:37;;;;;;;;;;;4.10;86.50;;;;;;4999425;28;86200;-48
2023/12/29 11:18:04;;;;;;;;;;;4.10;86.70;;;;;;5001216;28;88876;-47
2023/12/29 11:20:30;;;;;;;;;;;4.10;86.60;;;;;;4999413;28;86991;-48
2023/12/29 11:22:55;;;;;;;;;;;4.10;86.60;;;;;;4995921;28;88030;-46
2023/12/29 11:25:21;;;;;;;;;;;4.00;86.60;;;;;;5000164;28;86975;-47
2023/12/29 11:27:48;;;;;;;;;;;4.10;86.60;;;;;;4996509;28;87476;-48
2023/12/29 11:30:14;;;;;;;;;;;4.10;86.50;;;;;;5002749;28;87037;-47
2023/12/29 11:32:43;;;;;;;;;;;4.10;86.70;;;;;;4998867;28;88019;-48
2023/12/29 11:35:18;;;;;;;;;;;4.00;86.60;;;;;;4999376;28;87355;-48
2023/12/29 11:37:47;;;;;;;;;;;4.10;87.20;;;;;;5000648;28;87033;-50
2023/12/29 11:40:12;;;;;;;;;;;4.10;86.70;;;;;;5001367;28;88057;-46
2023/12/29 11:42:39;;;;;;;;;;;4.00;86.90;;;;;;4997869;28;87352;-46
2023/12/29 11:45:35;;;;;;;;;;;4.00;86.90;;;;;;4998857;28;87178;-48
2023/12/29 11:48:02;;;;;;;;;;;4.10;87.10;;;;;;4994956;28;89370;-47
2023/12/29 11:50:38;;;;;;;;;;;4.10;87.00;;;;;;4999400;28;87486;-47
2023/12/29 11:53:04;;;;;;;;;;;4.10;87.00;;;;;;4997887;28;87408;-48
2023/12/29 11:55:30;;;;;;;;;;;4.10;87.10;;;;;;4994631;28;87437;-49
2023/12/29 11:57:57;;;;;;;;;;;4.10;87.70;;;;;;5000249;28;87139;-47
2023/12/29 12:00:44;;;;;;;;;;;4.10;87.70;;;;;;4995498;28;87218;-48
2023/12/29 12:03:16;;;;;;;;;;;4.20;87.50;;;;;;4994363;28;87763;-48
2023/12/29 12:05:48;;;;;;;;;;;4.10;87.60;;;;;;4997005;28;86514;-47
2023/12/29 12:08:40;;;;;;;;;;;4.20;87.70;;;;;;4998113;28;87151;-47
2023/12/29 12:11:24;;;;;;;;;;;4.20;88.00;;;;;;4995743;28;86939;-47
2023/12/29 12:13:50;;;;;;;;;;;4.20;87.90;;;;;;4997033;28;87848;-47
2023/12/29 12:16:34;;;;;;;;;;;4.10;88.40;;;;;;4996334;28;88540;-47
2023/12/29 12:19:00;;;;;;;;;;;4.20;88.60;;;;;;5000019;28;87058;-47
2023/12/29 12:21:26;;;;;;;;;;;4.20;88.20;;;;;;5002337;28;86971;-46
2023/12/29 12:23:53;;;;;;;;;;;4.20;88.20;;;;;;5001717;28;87409;-46
2023/12/29 12:26:19;;;;;;;;;;;4.20;88.30;;;;;;4994449;28;87543;-47
2023/12/29 12:28:45;;;;;;;;;;;4.20;88.80;;;;;;4994408;28;86896;-48
2023/12/29 12:31:12;;;;;;;;;;;4.20;88.10;;;;;;5004055;28;87784;-47
2023/12/29 12:33:38;;;;;;;;;;;4.20;88.50;;;;;;5000768;28;86834;-46
2023/12/29 12:36:04;;;;;;;;;;;4.20;88.50;;;;;;4996309;28;87535;-48
2023/12/29 12:38:31;;;;;;;;;;;4.20;88.60;;;;;;4995250;28;87955;-47
2023/12/29 12:40:57;;;;;;;;;;;4.20;88.40;;;;;;4997594;28;86996;-48
2023/12/29 12:43:25;;;;;;;;;;;4.30;88.70;;;;;;4992877;28;87353;-47
2023/12/29 12:45:53;;;;;;;;;;;4.20;88.20;;;;;;5003821;28;87018;-48
2023/12/29 12:48:32;;;;;;;;;;;4.20;88.30;;;;;;4999001;28;87813;-46
2023/12/29 12:50:59;;;;;;;;;;;4.20;88.80;;;;;;4997058;28;87429;-47
2023/12/29 12:53:25;;;;;;;;;;;4.20;88.70;;;;;;4999771;28;87043;-47
2023/12/29 12:55:52;;;;;;;;;;;4.20;88.80;;;;;;4998646;28;86752;-48
2023/12/29 12:58:18;;;;;;;;;;;4.20;88.80;;;;;;4994716;28;87039;-49
2023/12/29 13:00:44;;;;;;;;;;;4.30;88.80;;;;;;4999450;28;87889;-48
2023/12/29 13:03:09;;;;;;;;;;;4.20;88.80;;;;;;4993048;28;88626;-48
2023/12/29 13:05:36;;;;;;;;;;;4.20;88.90;;;;;;5000582;28;86993;-47
2023/12/29 13:08:03;;;;;;;;;;;4.30;88.80;;;;;;4998512;28;88542;-47
2023/12/29 13:10:29;;;;;;;;;;;4.30;89.10;;;;;;4993824;28;86834;-47
2023/12/29 13:12:54;;;;;;;;;;;4.30;89.00;;;;;;4998255;28;86925;-47
2023/12/29 13:15:20;;;;;;;;;;;4.30;88.80;;;;;;4999914;28;87824;-47
2023/12/29 13:17:55;;;;;;;;;;;4.30;88.90;;;;;;4998617;28;87043;-46
2023/12/29 13:20:21;;;;;;;;;;;4.30;88.90;;;;;;4997793;28;87752;-47
2023/12/29 13:22:47;;;;;;;;;;;4.30;89.00;;;;;;5001885;28;86906;-47
2023/12/29 13:25:17;;;;;;;;;;;4.30;88.70;;;;;;4999959;28;87167;-48
2023/12/29 13:27:42;;;;;;;;;;;4.40;89.00;;;;;;4998604;28;88666;-49
2023/12/29 13:30:08;;;;;;;;;;;4.40;89.00;;;;;;4996947;28;86994;-49
2023/12/29 13:32:38;;;;;;;;;;;4.40;89.00;;;;;;4997473;28;87023;-46
2023/12/29 13:35:07;;;;;;;;;;;4.40;89.00;;;;;;5001915;28;87901;-47
2023/12/29 13:37:41;;;;;;;;;;;4.40;89.10;;;;;;5001493;28;87503;-47
2023/12/29 13:40:23;;;;;;;;;;;4.40;89.20;;;;;;4999815;28;87198;-47
2023/12/29 13:42:50;;;;;;;;;;;4.40;89.20;;;;;;4996521;28;87473;-47
2023/12/29 13:45:17;;;;;;;;;;;4.40;89.30;;;;;;4998165;28;86273;-46
2023/12/29 13:47:43;;;;;;;;;;;4.40;89.20;;;;;;5002132;28;87842;-48
2023/12/29 13:50:09;;;;;;;;;;;4.40;89.40;;;;;;4998713;28;87428;-46
2023/12/29 13:52:38;;;;;;;;;;;4.50;89.40;;;;;;5003266;28;87953;-48
2023/12/29 13:55:04;;;;;;;;;;;4.50;89.40;;;;;;5000860;28;87744;-46
2023/12/29 13:57:31;;;;;;;;;;;4.50;89.60;;;;;;5003903;28;89124;-47
2023/12/29 13:59:57;;;;;;;;;;;4.50;89.60;;;;;;5006432;28;87984;-46
2023/12/29 14:02:26;;;;;;;;;;;4.50;89.60;;;;;;5002923;28;87444;-47
2023/12/29 14:05:09;;;;;;;;;;;4.50;89.60;;;;;;4997173;28;87093;-46
2023/12/29 14:07:35;;;;;;;;;;;4.50;89.50;;;;;;5000534;28;86992;-47
2023/12/29 14:10:01;;;;;;;;;;;4.60;89.60;;;;;;5006024;28;87086;-47
2023/12/29 14:12:26;;;;;;;;;;;4.50;89.70;;;;;;4998909;28;87111;-47
2023/12/29 14:14:52;;;;;;;;;;;4.50;89.70;;;;;;4998377;28;87040;-46
2023/12/29 14:17:21;;;;;;;;;;;4.60;89.90;;;;;;5004658;28;88299;-47
2023/12/29 14:19:47;;;;;;;;;;;4.60;89.80;;;;;;5003216;28;86986;-47
2023/12/29 14:22:20;;;;;;;;;;;4.60;90.00;;;;;;4998282;28;87485;-45
2023/12/29 14:24:58;;;;;;;;;;;4.60;90.00;;;;;;5000935;28;87140;-46
2023/12/29 14:27:24;;;;;;;;;;;4.50;89.70;;;;;;4998356;28;86898;-46
2023/12/29 14:29:50;;;;;;;;;;;4.60;90.10;;;;;;5000876;28;88038;-47